createdAt,value
2019-05-21T00:00:00.686Z,8.8
2019-05-21T00:01:02.068Z,8.7
2019-05-21T00:02:03.464Z,8.7
2019-05-21T00:03:04.252Z,8.8
2019-05-21T00:04:05.702Z,8.7
2019-05-21T00:05:07.060Z,8.7
2019-05-21T00:06:08.458Z,8.7
2019-05-21T00:07:09.867Z,8.8
2019-05-21T00:09:12.392Z,8.8
2019-05-21T00:10:13.800Z,8.8
2019-05-21T00:16:20.226Z,8.8
2019-05-21T00:17:21.628Z,8.8
2019-05-21T00:18:23.054Z,8.8
2019-05-21T00:19:24.434Z,8.8
2019-05-21T00:20:25.839Z,8.9
2019-05-21T00:21:27.229Z,8.9
2019-05-21T00:22:28.625Z,8.9
2019-05-21T00:23:29.480Z,8.9
2019-05-21T00:24:30.874Z,8.9
2019-05-21T00:25:32.324Z,8.9
2019-05-21T00:27:34.867Z,8.9
2019-05-21T00:28:36.278Z,9
2019-05-21T00:29:37.672Z,9
2019-05-21T00:30:39.063Z,9
2019-05-21T00:31:40.464Z,9
2019-05-21T00:34:44.448Z,8.9
2019-05-21T00:35:44.922Z,8.9
2019-05-21T00:37:47.519Z,9
2019-05-21T00:38:51.882Z,9
2019-05-21T00:40:50.647Z,8.9
2019-05-21T00:41:52.033Z,8.8
2019-05-21T00:42:53.462Z,8.8
2019-05-21T00:43:54.228Z,8.8
2019-05-21T00:44:55.618Z,8.8
2019-05-21T00:45:57.014Z,8.8
2019-05-21T00:46:58.419Z,8.9
2019-05-21T00:49:00.927Z,8.8
2019-05-21T00:50:02.330Z,8.8
2019-05-21T00:54:06.485Z,8.7
2019-05-21T00:55:07.875Z,8.6
2019-05-21T00:56:09.270Z,8.6
2019-05-21T00:57:10.885Z,8.7
2019-05-21T00:58:12.173Z,8.7
2019-05-21T00:59:13.589Z,8.7
2019-05-21T01:00:15.113Z,8.7
2019-05-21T01:01:15.736Z,8.7
2019-05-21T01:02:17.129Z,8.7
2019-05-21T01:03:18.562Z,8.7
2019-05-21T01:05:20.475Z,8.6
2019-05-21T01:06:21.872Z,8.6
2019-05-21T01:07:23.277Z,8.5
2019-05-21T01:08:24.677Z,8.6
2019-05-21T01:11:28.333Z,8.5
2019-05-21T01:12:29.730Z,8.5
2019-05-21T01:14:31.627Z,8.5
2019-05-21T01:15:33.027Z,8.4
2019-05-21T01:18:36.703Z,8.4
2019-05-21T01:19:38.103Z,8.5
2019-05-21T01:20:39.503Z,8.6
2019-05-21T01:21:40.911Z,8.5
2019-05-21T01:22:42.312Z,8.5
2019-05-21T01:24:44.233Z,8.6
2019-05-21T01:25:45.626Z,8.5
2019-05-21T01:26:47.021Z,8.5
2019-05-21T01:27:48.409Z,8.5
2019-05-21T01:28:49.825Z,8.5
2019-05-21T01:32:54.607Z,8.5
2019-05-21T01:33:56.020Z,8.5
2019-05-21T01:34:56.426Z,8.5
2019-05-21T01:40:02.273Z,8.6
2019-05-21T01:41:03.670Z,8.7
2019-05-21T01:43:06.185Z,8.8
2019-05-21T01:44:07.617Z,8.9
2019-05-21T01:45:08.368Z,8.9
2019-05-21T01:48:12.027Z,9.1
2019-05-21T01:49:13.457Z,9.1
2019-05-21T01:50:14.856Z,9
2019-05-21T01:52:17.370Z,8.9
2019-05-21T01:53:18.764Z,8.9
2019-05-21T01:55:20.731Z,8.8
2019-05-21T01:57:23.258Z,8.8
2019-05-21T01:58:24.653Z,8.8
2019-05-21T02:00:27.214Z,8.8
2019-05-21T02:01:28.605Z,8.8
2019-05-21T02:02:30.006Z,8.8
2019-05-21T02:06:34.175Z,8.7
2019-05-21T02:07:35.573Z,8.6
2019-05-21T02:10:39.253Z,8.7
2019-05-21T02:11:40.654Z,8.6
2019-05-21T02:12:42.039Z,8.6
2019-05-21T02:13:43.437Z,8.6
2019-05-21T02:14:44.845Z,8.6
2019-05-21T02:17:47.879Z,8.6
2019-05-21T02:18:49.287Z,8.5
2019-05-21T02:20:51.837Z,8.6
2019-05-21T02:21:53.223Z,8.6
2019-05-21T02:22:54.624Z,8.7
2019-05-21T02:23:56.017Z,8.7
2019-05-21T02:24:57.438Z,8.7
2019-05-21T02:25:58.207Z,8.7
2019-05-21T02:26:59.607Z,8.7
2019-05-21T02:28:00.993Z,8.7
2019-05-21T02:29:02.645Z,8.7
2019-05-21T02:30:03.427Z,8.7
2019-05-21T02:31:04.088Z,8.7
2019-05-21T02:32:05.477Z,8.7
2019-05-21T02:33:06.869Z,8.8
2019-05-21T02:34:08.267Z,8.8
2019-05-21T02:35:09.678Z,8.8
2019-05-21T02:36:09.963Z,8.8
2019-05-21T02:37:11.361Z,8.8
2019-05-21T02:38:12.749Z,8.9
2019-05-21T02:39:14.146Z,8.9
2019-05-21T02:40:15.563Z,8.9
2019-05-21T02:41:16.957Z,8.9
2019-05-21T02:42:18.345Z,9
2019-05-21T02:43:19.740Z,9
2019-05-21T02:44:21.134Z,9
2019-05-21T02:45:22.557Z,9
2019-05-21T02:49:26.719Z,9
2019-05-21T02:50:28.147Z,9
2019-05-21T02:51:29.541Z,9.1
2019-05-21T02:53:34.437Z,9.1
2019-05-21T02:55:33.673Z,9.1
2019-05-21T02:56:34.426Z,9.1
2019-05-21T02:57:35.816Z,9
2019-05-21T03:01:40.675Z,9
2019-05-21T03:02:42.073Z,9
2019-05-21T03:03:43.466Z,8.9
2019-05-21T03:04:44.856Z,8.9
2019-05-21T03:05:46.275Z,8.9
2019-05-21T03:09:50.458Z,8.9
2019-05-21T03:10:51.847Z,8.8
2019-05-21T03:11:53.238Z,8.8
2019-05-21T03:12:54.636Z,8.8
2019-05-21T03:13:56.025Z,8.8
2019-05-21T03:14:57.493Z,8.8
2019-05-21T03:20:02.803Z,8.9
2019-05-21T03:21:04.201Z,8.9
2019-05-21T03:22:05.629Z,8.8
2019-05-21T03:24:08.154Z,8.8
2019-05-21T03:25:09.544Z,8.8
2019-05-21T03:27:11.508Z,8.7
2019-05-21T03:32:17.483Z,8.8
2019-05-21T03:34:20.074Z,8.8
2019-05-21T03:37:23.196Z,8.8
2019-05-21T03:38:24.583Z,8.8
2019-05-21T03:39:25.980Z,8.8
2019-05-21T03:40:27.371Z,8.8
2019-05-21T03:47:34.942Z,9
2019-05-21T03:48:36.345Z,9
2019-05-21T03:55:44.531Z,9.1
2019-05-21T03:56:45.952Z,9
2019-05-21T03:58:47.831Z,9
2019-05-21T03:59:49.228Z,9
2019-05-21T04:01:51.756Z,9
2019-05-21T04:02:53.144Z,9
2019-05-21T04:07:58.448Z,9
2019-05-21T04:08:59.851Z,9
2019-05-21T04:17:09.395Z,9
2019-05-21T04:18:10.156Z,9
2019-05-21T04:22:14.960Z,9
2019-05-21T04:23:16.348Z,9
2019-05-21T04:24:17.784Z,9
2019-05-21T04:27:21.458Z,9
2019-05-21T04:28:22.243Z,9
2019-05-21T04:29:23.625Z,9
2019-05-21T04:30:25.019Z,9
2019-05-21T04:31:26.426Z,9
2019-05-21T04:39:35.128Z,8.8
2019-05-21T04:40:35.790Z,8.9
2019-05-21T04:41:37.187Z,9
2019-05-21T04:42:38.593Z,8.9
2019-05-21T04:44:41.122Z,9
2019-05-21T04:45:42.531Z,9
2019-05-21T04:46:43.928Z,9
2019-05-21T04:47:45.344Z,9
2019-05-21T04:48:46.091Z,9
2019-05-21T04:49:47.485Z,9
2019-05-21T04:50:48.876Z,9
2019-05-21T04:52:51.415Z,9
2019-05-21T04:58:57.880Z,8.9
2019-05-21T05:07:07.195Z,8.9
2019-05-21T05:08:08.444Z,9
2019-05-21T05:09:09.205Z,9
2019-05-21T05:10:10.601Z,9
2019-05-21T05:11:11.996Z,9
2019-05-21T05:14:15.663Z,9
2019-05-21T05:15:17.054Z,9
2019-05-21T05:16:18.453Z,9
2019-05-21T05:17:19.863Z,9
2019-05-21T05:18:21.261Z,9.1
2019-05-21T05:19:22.025Z,9.1
2019-05-21T05:20:23.416Z,9
2019-05-21T05:22:25.941Z,9.1
2019-05-21T05:23:27.363Z,9.1
2019-05-21T05:25:30.067Z,9.1
2019-05-21T05:26:31.504Z,9.1
2019-05-21T05:27:32.897Z,9.1
2019-05-21T05:31:37.074Z,9.1
2019-05-21T05:32:38.472Z,9.1
2019-05-21T05:34:41.012Z,9.2
2019-05-21T05:35:42.425Z,9.2
2019-05-21T05:36:43.815Z,9.2
2019-05-21T05:38:46.353Z,9.2
2019-05-21T05:39:47.116Z,9.2
2019-05-21T05:40:48.509Z,9.2
2019-05-21T05:41:49.905Z,9.1
2019-05-21T05:45:54.721Z,9.2
2019-05-21T05:46:56.105Z,9.2
2019-05-21T05:47:57.517Z,9.2
2019-05-21T05:49:01.662Z,9.2
2019-05-21T05:49:59.592Z,9.2
2019-05-21T05:53:03.234Z,9.2
2019-05-21T05:54:07.474Z,9.2
2019-05-21T05:55:06.146Z,9.3
2019-05-21T05:56:07.543Z,9.2
2019-05-21T05:57:08.935Z,9.3
2019-05-21T05:58:10.363Z,9.2
2019-05-21T05:59:14.172Z,9.2
2019-05-21T06:00:12.355Z,9.3
2019-05-21T06:01:13.744Z,9.2
2019-05-21T06:02:15.147Z,9.2
2019-05-21T06:07:21.063Z,9.2
2019-05-21T06:08:22.486Z,9.2
2019-05-21T06:09:23.880Z,9.2
2019-05-21T06:10:24.726Z,9.2
2019-05-21T06:12:27.254Z,9.2
2019-05-21T06:13:28.665Z,9.2
2019-05-21T06:14:30.060Z,9.2
2019-05-21T06:15:31.459Z,9.2
2019-05-21T06:16:32.855Z,9.2
2019-05-21T06:17:34.243Z,9.2
2019-05-21T06:18:35.883Z,9.2
2019-05-21T06:19:36.269Z,9.2
2019-05-21T06:20:37.030Z,9.1
2019-05-21T06:21:38.430Z,9.1
2019-05-21T06:27:45.479Z,9.2
2019-05-21T06:28:46.911Z,9.2
2019-05-21T06:29:48.302Z,9.2
2019-05-21T06:30:49.075Z,9.2
2019-05-21T06:31:50.469Z,9.2
2019-05-21T06:32:51.855Z,9.2
2019-05-21T06:33:53.298Z,9.3
2019-05-21T06:34:54.754Z,9.2
2019-05-21T06:35:56.158Z,9.2
2019-05-21T06:36:57.566Z,9.2
2019-05-21T06:38:59.973Z,9.2
2019-05-21T06:41:01.893Z,9.2
2019-05-21T06:42:03.257Z,9.2
2019-05-21T06:44:05.799Z,9.2
2019-05-21T06:45:07.213Z,9.2
2019-05-21T06:46:08.593Z,9.2
2019-05-21T06:47:09.993Z,9.2
2019-05-21T06:48:11.391Z,9.2
2019-05-21T06:49:12.796Z,9.2
2019-05-21T06:50:14.192Z,9.2
2019-05-21T06:52:16.077Z,9.2
2019-05-21T06:53:17.472Z,9.2
2019-05-21T06:55:20.026Z,9.2
2019-05-21T06:56:21.429Z,9.1
2019-05-21T06:57:22.821Z,9.2
2019-05-21T06:58:24.209Z,9.2
2019-05-21T06:59:25.706Z,9.2
2019-05-21T07:00:27.060Z,9.2
2019-05-21T07:01:29.414Z,9.2
2019-05-21T07:02:29.212Z,9.1
2019-05-21T07:08:36.278Z,9.1
2019-05-21T07:09:37.690Z,9.1
2019-05-21T07:10:39.084Z,9.1
2019-05-21T07:11:39.841Z,9.1
2019-05-21T07:15:44.758Z,9.1
2019-05-21T07:16:46.156Z,9.1
2019-05-21T07:17:47.550Z,9.1
2019-05-21T07:18:48.944Z,9.1
2019-05-21T07:19:50.355Z,9.1
2019-05-21T07:20:51.755Z,9.1
2019-05-21T07:21:52.532Z,9.1
2019-05-21T07:22:53.137Z,9.1
2019-05-21T07:23:53.853Z,9.1
2019-05-21T07:25:56.400Z,9.1
2019-05-21T07:26:57.852Z,9.1
2019-05-21T07:27:59.236Z,9.1
2019-05-21T07:29:00.631Z,9.1
2019-05-21T07:30:01.218Z,9.1
2019-05-21T07:31:02.614Z,9.2
2019-05-21T07:32:03.436Z,9.2
2019-05-21T07:35:07.098Z,9.2
2019-05-21T07:36:08.513Z,9.2
2019-05-21T07:37:09.897Z,9.2
2019-05-21T07:38:11.302Z,9.2
2019-05-21T07:39:12.711Z,9.2
2019-05-21T07:40:14.139Z,9.2
2019-05-21T07:41:15.534Z,9.2
2019-05-21T07:42:16.295Z,9.2
2019-05-21T07:43:17.703Z,9.2
2019-05-21T07:44:19.093Z,9.2
2019-05-21T07:45:20.504Z,9.2
2019-05-21T07:47:23.052Z,9.2
2019-05-21T07:48:24.447Z,9.2
2019-05-21T07:50:27.007Z,9.2
2019-05-21T07:51:28.406Z,9.2
2019-05-21T07:52:29.157Z,9.2
2019-05-21T07:53:30.548Z,9.2
2019-05-21T07:54:31.965Z,9.2
2019-05-21T07:55:33.364Z,9.2
2019-05-21T07:56:34.758Z,9.2
2019-05-21T07:59:38.420Z,9.3
2019-05-21T08:00:39.826Z,9.2
2019-05-21T08:02:41.706Z,9.3
2019-05-21T08:03:43.125Z,9.3
2019-05-21T08:04:44.554Z,9.3
2019-05-21T08:06:47.145Z,9.3
2019-05-21T08:07:48.542Z,9.3
2019-05-21T08:08:49.938Z,9.3
2019-05-21T08:09:50.477Z,9.3
2019-05-21T08:10:51.866Z,9.3
2019-05-21T08:12:53.720Z,9.3
2019-05-21T08:14:56.264Z,9.3
2019-05-21T08:15:57.660Z,9.3
2019-05-21T08:16:59.058Z,9.3
2019-05-21T08:18:00.463Z,9.4
2019-05-21T08:19:01.857Z,9.3
2019-05-21T08:21:04.357Z,9.4
2019-05-21T08:22:05.761Z,9.3
2019-05-21T08:25:08.816Z,9.3
2019-05-21T08:26:10.166Z,9.3
2019-05-21T08:27:11.561Z,9.3
2019-05-21T08:28:12.971Z,9.3
2019-05-21T08:29:14.359Z,9.3
2019-05-21T08:30:15.768Z,9.3
2019-05-21T08:33:18.782Z,9.3
2019-05-21T08:43:29.090Z,9.4
2019-05-21T08:44:30.492Z,9.4
2019-05-21T08:45:31.899Z,9.3
2019-05-21T08:46:33.300Z,9.4
2019-05-21T08:47:34.707Z,9.4
2019-05-21T08:48:36.100Z,9.4
2019-05-21T08:49:37.492Z,9.4
2019-05-21T08:50:38.335Z,9.4
2019-05-21T08:51:39.725Z,9.3
2019-05-21T08:52:41.112Z,9.4
2019-05-21T08:53:41.882Z,9.4
2019-05-21T08:54:43.414Z,9.4
2019-05-21T08:55:43.859Z,9.4
2019-05-21T08:56:45.251Z,9.4
2019-05-21T08:58:47.827Z,9.4
2019-05-21T09:00:50.365Z,9.4
2019-05-21T09:01:51.776Z,9.4
2019-05-21T09:02:53.193Z,9.4
2019-05-21T09:10:00.749Z,9.4
2019-05-21T09:11:02.163Z,9.4
2019-05-21T09:12:03.587Z,9.4
2019-05-21T09:13:04.970Z,9.4
2019-05-21T09:14:05.731Z,9.4
2019-05-21T09:15:07.127Z,9.4
2019-05-21T09:16:08.534Z,9.4
2019-05-21T09:19:12.183Z,9.5
2019-05-21T09:20:13.583Z,9.4
2019-05-21T09:21:14.998Z,9.4
2019-05-21T09:22:16.386Z,9.5
2019-05-21T09:23:17.791Z,9.5
2019-05-21T09:24:18.551Z,9.4
2019-05-21T09:25:19.941Z,9.4
2019-05-21T09:28:23.618Z,9.5
2019-05-21T09:29:25.011Z,9.5
2019-05-21T09:34:45.982Z,9.6
2019-05-21T09:35:31.562Z,9.6
2019-05-21T09:36:32.953Z,9.6
2019-05-21T09:39:36.605Z,9.6
2019-05-21T09:40:38.071Z,9.6
2019-05-21T09:41:39.441Z,9.6
2019-05-21T09:43:41.965Z,9.5
2019-05-21T09:44:42.727Z,9.5
2019-05-21T09:45:44.139Z,9.5
2019-05-21T09:46:45.523Z,9.6
2019-05-21T09:51:51.477Z,9.6
2019-05-21T09:52:52.883Z,9.6
2019-05-21T09:53:54.276Z,9.6
2019-05-21T09:54:55.031Z,9.6
2019-05-21T09:55:56.450Z,9.6
2019-05-21T09:57:58.965Z,9.7
2019-05-21T09:59:00.363Z,9.7
2019-05-21T10:02:04.054Z,9.7
2019-05-21T10:05:06.276Z,9.6
2019-05-21T10:06:07.705Z,9.7
2019-05-21T10:12:14.771Z,9.7
2019-05-21T10:13:16.178Z,9.7
2019-05-21T10:14:17.572Z,9.7
2019-05-21T10:15:18.348Z,9.7
2019-05-21T10:16:19.727Z,9.7
2019-05-21T10:17:21.161Z,9.7
2019-05-21T10:18:22.560Z,9.7
2019-05-21T10:19:23.943Z,9.7
2019-05-21T10:20:25.341Z,9.7
2019-05-21T10:21:26.967Z,9.7
2019-05-21T10:22:27.473Z,9.7
2019-05-21T10:26:31.663Z,9.8
2019-05-21T10:27:33.057Z,9.8
2019-05-21T10:28:34.457Z,9.9
2019-05-21T10:31:38.145Z,9.9
2019-05-21T10:32:39.545Z,9.9
2019-05-21T10:33:40.931Z,9.9
2019-05-21T10:34:42.335Z,9.9
2019-05-21T10:37:54.269Z,9.9
2019-05-21T10:41:50.247Z,10
2019-05-21T10:43:52.760Z,9.9
2019-05-21T10:44:54.171Z,10
2019-05-21T10:45:54.929Z,10
2019-05-21T10:46:56.346Z,10.1
2019-05-21T10:47:57.746Z,10.1
2019-05-21T10:48:59.146Z,10.1
2019-05-21T10:50:00.528Z,10.1
2019-05-21T10:51:01.925Z,10.1
2019-05-21T10:52:03.332Z,10.1
2019-05-21T10:56:07.273Z,10.1
2019-05-21T10:57:08.690Z,10.1
2019-05-21T11:00:12.343Z,10.2
2019-05-21T11:03:15.936Z,10.2
2019-05-21T11:04:17.426Z,10.2
2019-05-21T11:06:19.386Z,10.2
2019-05-21T11:07:20.825Z,10.2
2019-05-21T11:10:24.455Z,10.2
2019-05-21T11:13:28.143Z,10.3
2019-05-21T11:14:29.530Z,10.3
2019-05-21T11:15:30.942Z,10.4
2019-05-21T11:16:31.715Z,10.3
2019-05-21T11:21:36.977Z,10.3
2019-05-21T11:23:39.560Z,10.3
2019-05-21T11:24:40.959Z,10.3
2019-05-21T11:26:42.842Z,10.3
2019-05-21T11:28:45.406Z,10.2
2019-05-21T11:31:56.726Z,10.3
2019-05-21T11:32:50.104Z,10.3
2019-05-21T11:35:53.773Z,10.3
2019-05-21T11:44:02.488Z,10.5
2019-05-21T11:45:03.879Z,10.5
2019-05-21T11:46:05.268Z,10.5
2019-05-21T11:47:06.028Z,10.5
2019-05-21T11:48:07.538Z,10.5
2019-05-21T11:49:08.922Z,10.5
2019-05-21T11:50:10.310Z,10.4
2019-05-21T11:51:12.737Z,10.5
2019-05-21T11:52:12.285Z,10.5
2019-05-21T11:57:17.584Z,10.3
2019-05-21T11:58:19.106Z,10.3
2019-05-21T11:59:19.584Z,10.4
2019-05-21T12:00:21.731Z,10.4
2019-05-21T12:01:22.313Z,10.5
2019-05-21T12:02:23.709Z,10.5
2019-05-21T12:03:25.114Z,10.5
2019-05-21T12:04:26.519Z,10.5
2019-05-21T12:07:29.537Z,10.4
2019-05-21T12:08:30.950Z,10.4
2019-05-21T12:15:39.133Z,10.5
2019-05-21T12:16:40.543Z,10.4
2019-05-21T12:17:41.435Z,10.5
2019-05-21T12:18:42.838Z,10.5
2019-05-21T12:19:44.242Z,10.5
2019-05-21T12:22:47.885Z,10.5
2019-05-21T12:23:49.307Z,10.6
2019-05-21T12:24:50.708Z,10.6
2019-05-21T12:25:52.134Z,10.5
2019-05-21T12:27:54.038Z,10.5
2019-05-21T12:28:55.465Z,10.6
2019-05-21T12:30:58.034Z,10.6
2019-05-21T12:38:05.578Z,10.7
2019-05-21T12:43:11.391Z,10.6
2019-05-21T12:44:12.803Z,10.7
2019-05-21T12:45:14.201Z,10.6
2019-05-21T12:48:17.223Z,10.6
2019-05-21T12:50:19.766Z,10.6
2019-05-21T12:53:23.406Z,10.6
2019-05-21T12:55:25.951Z,10.6
2019-05-21T12:56:27.339Z,10.6
2019-05-21T12:57:28.737Z,10.6
2019-05-21T12:58:29.514Z,10.6
2019-05-21T12:59:30.956Z,10.6
2019-05-21T13:05:38.048Z,10.6
2019-05-21T13:09:42.236Z,10.7
2019-05-21T13:10:43.634Z,10.7
2019-05-21T13:11:45.025Z,10.7
2019-05-21T13:12:46.420Z,10.7
2019-05-21T13:15:50.111Z,10.7
2019-05-21T13:16:51.637Z,10.6
2019-05-21T13:17:52.270Z,10.6
2019-05-21T13:18:53.025Z,10.7
2019-05-21T13:20:55.568Z,10.6
2019-05-21T13:21:56.973Z,10.6
2019-05-21T13:22:58.366Z,10.6
2019-05-21T13:25:00.925Z,10.5
2019-05-21T13:27:02.897Z,10.5
2019-05-21T13:28:04.321Z,10.5
2019-05-21T13:29:05.073Z,10.5
2019-05-21T13:30:06.486Z,10.5
2019-05-21T13:31:07.950Z,10.5
2019-05-21T13:32:09.340Z,10.6
2019-05-21T13:33:10.752Z,10.6
2019-05-21T13:34:11.568Z,10.6
2019-05-21T13:35:12.966Z,10.5
2019-05-21T13:38:16.628Z,10.5
2019-05-21T13:39:17.429Z,10.5
2019-05-21T13:42:20.954Z,10.5
2019-05-21T13:43:22.369Z,10.5
2019-05-21T13:44:23.795Z,10.5
2019-05-21T13:46:26.307Z,10.5
2019-05-21T13:47:27.390Z,10.5
2019-05-21T13:49:29.303Z,10.6
2019-05-21T13:50:30.702Z,10.5
2019-05-21T13:54:35.497Z,10.5
2019-05-21T13:55:36.893Z,10.5
2019-05-21T13:56:38.304Z,10.5
2019-05-21T13:57:39.737Z,10.4
2019-05-21T13:59:41.691Z,10.5
2019-05-21T14:00:43.098Z,10.4
2019-05-21T14:01:44.497Z,10.5
2019-05-21T14:02:45.890Z,10.5
2019-05-21T14:03:47.275Z,10.5
2019-05-21T14:07:52.317Z,10.5
2019-05-21T14:08:53.700Z,10.5
2019-05-21T14:10:13.010Z,10.4
2019-05-21T14:11:56.222Z,10.4
2019-05-21T14:12:57.617Z,10.4
2019-05-21T14:13:59.063Z,10.5
2019-05-21T14:15:00.477Z,10.5
2019-05-21T14:18:04.261Z,10.4
2019-05-21T14:19:05.656Z,10.4
2019-05-21T14:23:09.899Z,10.5
2019-05-21T14:24:11.298Z,10.4
2019-05-21T14:28:16.084Z,10.4
2019-05-21T14:29:17.476Z,10.4
2019-05-21T14:32:20.512Z,10.5
2019-05-21T14:33:21.916Z,10.5
2019-05-21T14:40:32.036Z,10.4
2019-05-21T14:41:30.156Z,10.4
2019-05-21T14:43:32.681Z,10.5
2019-05-21T14:44:34.081Z,10.5
2019-05-21T14:46:36.618Z,10.5
2019-05-21T14:48:39.152Z,10.5
2019-05-21T14:49:40.543Z,10.6
2019-05-21T14:50:41.342Z,10.5
2019-05-21T14:51:42.736Z,10.5
2019-05-21T14:53:45.412Z,10.5
2019-05-21T15:02:54.741Z,10.5
2019-05-21T15:03:56.184Z,10.6
2019-05-21T15:04:56.803Z,10.5
2019-05-21T15:06:58.594Z,10.5
2019-05-21T15:08:00.003Z,10.6
2019-05-21T15:09:01.381Z,10.6
2019-05-21T15:10:02.776Z,10.6
2019-05-21T15:11:03.277Z,10.6
2019-05-21T15:12:04.674Z,10.5
2019-05-21T15:13:06.584Z,10.5
2019-05-21T15:17:10.583Z,10.5
2019-05-21T15:21:14.983Z,10.5
2019-05-21T15:22:16.382Z,10.5
2019-05-21T15:23:17.781Z,10.5
2019-05-21T15:29:25.025Z,10.4
2019-05-21T15:30:26.415Z,10.4
2019-05-21T15:33:29.474Z,10.4
2019-05-21T15:34:30.875Z,10.4
2019-05-21T15:36:33.434Z,10.3
2019-05-21T15:37:34.818Z,10.3
2019-05-21T15:38:49.095Z,10.4
2019-05-21T15:39:37.442Z,10.3
2019-05-21T15:40:38.844Z,10.3
2019-05-21T15:41:39.825Z,10.3
2019-05-21T15:42:41.216Z,10.3
2019-05-21T15:43:42.500Z,10.3
2019-05-21T15:44:43.891Z,10.3
2019-05-21T15:45:45.320Z,10.3
2019-05-21T15:46:49.935Z,10.3
2019-05-21T15:47:47.306Z,10.3
2019-05-21T15:48:48.701Z,10.2
2019-05-21T15:49:50.138Z,10.2
2019-05-21T15:54:55.468Z,10.2
2019-05-21T15:55:56.871Z,10.2
2019-05-21T15:56:58.295Z,10.2
2019-05-21T16:01:03.070Z,10.2
2019-05-21T16:02:04.078Z,10.2
2019-05-21T16:05:07.300Z,10.2
2019-05-21T16:06:08.702Z,10.2
2019-05-21T16:07:10.134Z,10.2
2019-05-21T16:08:11.516Z,10.2
2019-05-21T16:09:13.191Z,10.2
2019-05-21T16:10:13.746Z,10.2
2019-05-21T16:12:16.245Z,10.2
2019-05-21T16:13:17.650Z,10.1
2019-05-21T16:14:19.037Z,10.1
2019-05-21T16:15:20.440Z,10.1
2019-05-21T16:17:22.993Z,10.1
2019-05-21T16:18:24.385Z,10.1
2019-05-21T16:19:25.783Z,10.1
2019-05-21T16:21:28.422Z,10.1
2019-05-21T16:22:29.191Z,10.1
2019-05-21T16:23:30.620Z,10.1
2019-05-21T16:24:32.030Z,10.1
2019-05-21T16:25:33.447Z,10.1
2019-05-21T16:26:34.861Z,10.1
2019-05-21T16:31:40.801Z,10.1
2019-05-21T16:32:41.621Z,10.1
2019-05-21T16:33:43.008Z,10.1
2019-05-21T16:35:45.659Z,10
2019-05-21T16:37:48.199Z,10
2019-05-21T16:38:49.605Z,10
2019-05-21T16:39:50.146Z,10
2019-05-21T16:40:51.555Z,10
2019-05-21T16:43:54.626Z,10
2019-05-21T16:44:56.011Z,10
2019-05-21T16:50:02.096Z,10
2019-05-21T16:51:03.626Z,10
2019-05-21T16:57:10.187Z,9.9
2019-05-21T16:58:11.632Z,9.9
2019-05-21T17:02:16.669Z,9.9
2019-05-21T17:03:17.439Z,9.9
2019-05-21T17:04:18.846Z,9.9
2019-05-21T17:05:20.244Z,9.9
2019-05-21T17:06:21.637Z,9.9
2019-05-21T17:08:24.209Z,9.9
2019-05-21T17:09:28.208Z,9.9
2019-05-21T17:10:26.745Z,9.9
2019-05-21T17:11:28.130Z,9.9
2019-05-21T17:15:32.354Z,9.9
2019-05-21T17:16:33.763Z,9.9
2019-05-21T17:17:35.153Z,9.9
2019-05-21T17:18:36.565Z,9.9
2019-05-21T17:19:37.962Z,9.9
2019-05-21T17:21:40.489Z,9.9
2019-05-21T17:22:41.885Z,9.9
2019-05-21T17:23:42.697Z,9.9
2019-05-21T17:26:46.346Z,9.8
2019-05-21T17:27:47.739Z,9.8
2019-05-21T17:28:49.169Z,9.8
2019-05-21T17:31:52.839Z,9.8
2019-05-21T17:32:54.267Z,9.8
2019-05-21T17:33:55.068Z,9.8
2019-05-21T17:34:56.466Z,9.8
2019-05-21T17:36:58.990Z,9.8
2019-05-21T17:38:00.495Z,9.8
2019-05-21T17:43:06.794Z,9.7
2019-05-21T17:46:09.842Z,9.7
2019-05-21T17:47:11.233Z,9.7
2019-05-21T17:48:12.670Z,9.7
2019-05-21T17:49:14.069Z,9.7
2019-05-21T17:50:15.460Z,9.7
2019-05-21T17:51:16.859Z,9.7
2019-05-21T17:52:18.247Z,9.7
2019-05-21T17:53:19.669Z,9.7
2019-05-21T17:57:23.820Z,9.8
2019-05-21T17:58:25.237Z,9.8
2019-05-21T17:59:26.662Z,9.8
2019-05-21T18:01:29.223Z,9.8
2019-05-21T18:02:30.623Z,9.8
2019-05-21T18:03:32.037Z,9.8
2019-05-21T18:08:37.343Z,9.8
2019-05-21T18:09:38.748Z,9.8
2019-05-21T18:10:40.152Z,9.8
2019-05-21T18:13:43.826Z,9.8
2019-05-21T18:14:44.626Z,9.7
2019-05-21T18:15:46.010Z,9.7
2019-05-21T18:16:47.410Z,9.7
2019-05-21T18:17:48.881Z,9.8
2019-05-21T18:18:50.323Z,9.8
2019-05-21T18:19:51.761Z,9.8
2019-05-21T18:20:53.141Z,9.8
2019-05-21T18:24:57.336Z,9.8
2019-05-21T18:25:58.738Z,9.8
2019-05-21T18:27:00.121Z,9.8
2019-05-21T18:29:02.646Z,9.8
2019-05-21T18:30:04.202Z,9.8
2019-05-21T18:37:11.748Z,9.8
2019-05-21T18:38:13.149Z,9.8
2019-05-21T18:39:14.546Z,9.8
2019-05-21T18:42:21.985Z,9.8
2019-05-21T18:43:19.044Z,9.8
2019-05-21T18:44:20.434Z,9.8
2019-05-21T18:45:21.207Z,9.8
2019-05-21T18:46:22.605Z,9.8
2019-05-21T18:47:24.160Z,9.8
2019-05-21T18:50:35.948Z,9.8
2019-05-21T18:51:28.533Z,9.8
2019-05-21T18:52:29.928Z,9.8
2019-05-21T18:54:32.446Z,9.8
2019-05-21T18:55:33.306Z,9.8
2019-05-21T18:56:34.713Z,9.8
2019-05-21T18:57:36.095Z,9.8
2019-05-21T18:58:37.480Z,9.8
2019-05-21T19:04:44.636Z,9.9
2019-05-21T19:05:45.424Z,9.8
2019-05-21T19:06:46.798Z,9.8
2019-05-21T19:07:48.189Z,9.8
2019-05-21T19:08:49.607Z,9.8
2019-05-21T19:13:55.148Z,9.8
2019-05-21T19:14:56.541Z,9.8
2019-05-21T19:15:56.886Z,9.8
2019-05-21T19:19:00.523Z,9.7
2019-05-21T19:20:01.988Z,9.7
2019-05-21T19:21:03.400Z,9.8
2019-05-21T19:22:04.788Z,9.8
2019-05-21T19:25:08.500Z,9.8
2019-05-21T19:28:11.508Z,9.8
2019-05-21T19:29:12.917Z,9.8
2019-05-21T19:31:15.466Z,9.8
2019-05-21T19:32:16.876Z,9.8
2019-05-21T19:33:18.259Z,9.8
2019-05-21T19:34:19.682Z,9.8
2019-05-21T19:35:21.087Z,9.8
2019-05-21T19:38:24.112Z,9.8
2019-05-21T19:39:25.533Z,9.7
2019-05-21T19:40:26.959Z,9.7
2019-05-21T19:43:30.595Z,9.7
2019-05-21T19:44:32.001Z,9.7
2019-05-21T19:45:33.428Z,9.7
2019-05-21T19:49:37.582Z,9.7
2019-05-21T19:50:39.022Z,9.8
2019-05-21T19:51:40.393Z,9.7
2019-05-21T19:52:41.784Z,9.7
2019-05-21T19:53:43.173Z,9.7
2019-05-21T19:54:44.573Z,9.7
2019-05-21T19:55:45.994Z,9.8
2019-05-21T20:00:51.299Z,9.8
2019-05-21T20:01:52.701Z,9.7
2019-05-21T20:02:54.102Z,9.7
2019-05-21T20:03:55.501Z,9.7
2019-05-21T20:04:56.887Z,9.7
2019-05-21T20:06:58.798Z,9.7
2019-05-21T20:08:00.195Z,9.7
2019-05-21T20:11:03.879Z,9.7
2019-05-21T20:12:05.300Z,9.7
2019-05-21T20:13:06.692Z,9.7
2019-05-21T20:15:09.202Z,9.7
2019-05-21T20:16:10.610Z,9.7
2019-05-21T20:17:11.622Z,9.7
2019-05-21T20:18:12.643Z,9.7
2019-05-21T20:19:14.042Z,9.7
2019-05-21T20:20:15.457Z,9.8
2019-05-21T20:21:16.849Z,9.8
2019-05-21T20:22:18.250Z,9.8
2019-05-21T20:23:19.269Z,9.8
2019-05-21T20:24:20.671Z,9.8
2019-05-21T20:25:22.060Z,9.8
2019-05-21T20:26:23.490Z,9.8
2019-05-21T20:29:26.512Z,9.7
2019-05-21T20:30:27.906Z,9.7
2019-05-21T20:32:30.461Z,9.7
2019-05-21T20:33:31.859Z,9.7
2019-05-21T20:34:33.278Z,9.7
2019-05-21T20:38:37.547Z,9.7
2019-05-21T20:39:38.939Z,9.7
2019-05-21T20:40:40.361Z,9.7
2019-05-21T20:41:41.747Z,9.7
2019-05-21T20:42:43.206Z,9.7
2019-05-21T20:43:58.128Z,9.7
2019-05-21T20:45:46.784Z,9.7
2019-05-21T20:46:48.207Z,9.7
2019-05-21T20:47:48.991Z,9.7
2019-05-21T20:48:50.371Z,9.7
2019-05-21T20:50:52.890Z,9.7
2019-05-21T20:51:54.317Z,9.7
2019-05-21T20:52:55.712Z,9.7
2019-05-21T20:53:57.113Z,9.7
2019-05-21T20:55:59.639Z,9.7
2019-05-21T20:59:02.704Z,9.7
2019-05-21T21:00:04.079Z,9.7
2019-05-21T21:02:08.691Z,9.7
2019-05-21T21:06:11.536Z,9.7
2019-05-21T21:08:13.470Z,9.7
2019-05-21T21:09:14.870Z,9.7
2019-05-21T21:10:16.263Z,9.7
2019-05-21T21:11:17.661Z,9.7
2019-05-21T21:12:19.061Z,9.7
2019-05-21T21:13:20.491Z,9.7
2019-05-21T21:15:23.012Z,9.8
2019-05-21T21:16:24.405Z,9.7
2019-05-21T21:18:26.317Z,9.7
2019-05-21T21:19:27.724Z,9.7
2019-05-21T21:20:29.125Z,9.7
2019-05-21T21:21:30.519Z,9.7
2019-05-21T21:22:31.924Z,9.7
2019-05-21T21:24:34.441Z,9.7
2019-05-21T21:25:35.842Z,9.7
2019-05-21T21:27:38.379Z,9.7
2019-05-21T21:28:39.166Z,9.7
2019-05-21T21:29:40.551Z,9.7
2019-05-21T21:31:43.100Z,9.7
2019-05-21T21:32:44.514Z,9.7
2019-05-21T21:33:45.914Z,9.7
2019-05-21T21:44:58.037Z,9.6
2019-05-21T21:45:59.433Z,9.6
2019-05-21T21:47:00.831Z,9.6
2019-05-21T21:48:02.240Z,9.6
2019-05-21T21:49:02.997Z,9.6
2019-05-21T21:50:04.389Z,9.6
2019-05-21T21:51:05.788Z,9.6
2019-05-21T21:52:07.195Z,9.6
2019-05-21T21:53:07.874Z,9.6
2019-05-21T21:59:14.331Z,9.6
2019-05-21T22:00:15.733Z,9.6
2019-05-21T22:01:17.120Z,9.6
2019-05-21T22:02:18.529Z,9.6
2019-05-21T22:03:19.944Z,9.6
2019-05-21T22:04:21.344Z,9.6
2019-05-21T22:07:25.017Z,9.6
2019-05-21T22:09:27.006Z,9.6
2019-05-21T22:10:28.404Z,9.6
2019-05-21T22:11:29.798Z,9.6
2019-05-21T22:12:31.195Z,9.6
2019-05-21T22:13:32.594Z,9.7
2019-05-21T22:14:47.967Z,9.6
2019-05-21T22:15:34.417Z,9.6
2019-05-21T22:16:35.821Z,9.7
2019-05-21T22:17:37.207Z,9.7
2019-05-21T22:18:38.612Z,9.7
2019-05-21T22:19:39.390Z,9.7
2019-05-21T22:21:41.908Z,9.7
2019-05-21T22:22:43.307Z,9.7
2019-05-21T22:24:45.603Z,9.7
2019-05-21T22:25:47.026Z,9.7
2019-05-21T22:27:49.536Z,9.7
2019-05-21T22:28:50.949Z,9.6
2019-05-21T22:29:51.732Z,9.6
2019-05-21T22:31:54.278Z,9.6
2019-05-21T22:32:55.670Z,9.6
2019-05-21T22:34:58.209Z,9.6